sensor_id;sensor_type;location;lat;lon;timestamp;P1;durP1;ratioP1;P2;durP2;ratioP2
84682;SDS011;74905;44.124;18.116;2024-03-08T00:01:12;26.20;;;12.90;;
84682;SDS011;74905;44.124;18.116;2024-03-08T00:03:38;28.73;;;14.43;;
84682;SDS011;74905;44.124;18.116;2024-03-08T00:06:05;32.03;;;14.27;;
84682;SDS011;74905;44.124;18.116;2024-03-08T00:08:31;30.95;;;14.27;;
84682;SDS011;74905;44.124;18.116;2024-03-08T00:10:57;27.10;;;13.18;;
84682;SDS011;74905;44.124;18.116;2024-03-08T00:13:22;26.70;;;12.98;;
84682;SDS011;74905;44.124;18.116;2024-03-08T00:15:50;27.25;;;13.85;;
84682;SDS011;74905;44.124;18.116;2024-03-08T00:18:16;31.17;;;13.77;;
84682;SDS011;74905;44.124;18.116;2024-03-08T00:20:42;26.40;;;13.70;;
84682;SDS011;74905;44.124;18.116;2024-03-08T00:23:09;25.65;;;13.38;;
84682;SDS011;74905;44.124;18.116;2024-03-08T00:25:36;23.63;;;12.90;;
84682;SDS011;74905;44.124;18.116;2024-03-08T00:28:01;29.30;;;13.85;;
84682;SDS011;74905;44.124;18.116;2024-03-08T00:30:27;25.95;;;12.48;;
84682;SDS011;74905;44.124;18.116;2024-03-08T00:32:53;22.52;;;12.35;;
84682;SDS011;74905;44.124;18.116;2024-03-08T00:35:18;22.85;;;12.23;;
84682;SDS011;74905;44.124;18.116;2024-03-08T00:37:44;27.75;;;12.45;;
84682;SDS011;74905;44.124;18.116;2024-03-08T00:40:12;24.63;;;13.13;;
84682;SDS011;74905;44.124;18.116;2024-03-08T00:42:38;24.52;;;13.20;;
84682;SDS011;74905;44.124;18.116;2024-03-08T00:45:05;24.45;;;14.05;;
84682;SDS011;74905;44.124;18.116;2024-03-08T00:47:31;24.35;;;13.23;;
84682;SDS011;74905;44.124;18.116;2024-03-08T00:49:56;24.27;;;11.82;;
84682;SDS011;74905;44.124;18.116;2024-03-08T00:52:22;24.35;;;12.80;;
84682;SDS011;74905;44.124;18.116;2024-03-08T00:54:49;22.27;;;12.25;;
84682;SDS011;74905;44.124;18.116;2024-03-08T00:57:15;22.60;;;12.50;;
84682;SDS011;74905;44.124;18.116;2024-03-08T00:59:41;27.50;;;13.35;;
84682;SDS011;74905;44.124;18.116;2024-03-08T01:02:07;21.63;;;12.32;;
84682;SDS011;74905;44.124;18.116;2024-03-08T01:04:34;24.75;;;12.40;;
84682;SDS011;74905;44.124;18.116;2024-03-08T01:07:00;22.38;;;13.68;;
84682;SDS011;74905;44.124;18.116;2024-03-08T01:09:26;29.65;;;13.27;;
84682;SDS011;74905;44.124;18.116;2024-03-08T01:11:54;26.02;;;14.65;;
84682;SDS011;74905;44.124;18.116;2024-03-08T01:14:20;35.30;;;13.82;;
84682;SDS011;74905;44.124;18.116;2024-03-08T01:16:50;27.20;;;13.45;;
84682;SDS011;74905;44.124;18.116;2024-03-08T01:19:16;34.92;;;15.60;;
84682;SDS011;74905;44.124;18.116;2024-03-08T01:21:42;30.73;;;14.15;;
84682;SDS011;74905;44.124;18.116;2024-03-08T01:24:08;26.17;;;14.23;;
84682;SDS011;74905;44.124;18.116;2024-03-08T01:26:34;23.83;;;13.05;;
84682;SDS011;74905;44.124;18.116;2024-03-08T01:29:00;28.55;;;14.68;;
84682;SDS011;74905;44.124;18.116;2024-03-08T01:31:31;27.02;;;13.98;;
84682;SDS011;74905;44.124;18.116;2024-03-08T01:33:58;25.55;;;14.35;;
84682;SDS011;74905;44.124;18.116;2024-03-08T01:36:24;27.27;;;14.25;;
84682;SDS011;74905;44.124;18.116;2024-03-08T01:38:50;24.45;;;13.25;;
84682;SDS011;74905;44.124;18.116;2024-03-08T01:41:16;26.48;;;13.13;;
84682;SDS011;74905;44.124;18.116;2024-03-08T01:43:43;24.70;;;13.27;;
84682;SDS011;74905;44.124;18.116;2024-03-08T01:46:09;26.95;;;14.30;;
84682;SDS011;74905;44.124;18.116;2024-03-08T01:48:38;24.48;;;13.07;;
84682;SDS011;74905;44.124;18.116;2024-03-08T01:51:06;31.10;;;15.38;;
84682;SDS011;74905;44.124;18.116;2024-03-08T01:53:32;25.40;;;13.73;;
84682;SDS011;74905;44.124;18.116;2024-03-08T01:55:59;27.85;;;15.15;;
84682;SDS011;74905;44.124;18.116;2024-03-08T01:58:28;28.25;;;13.90;;
84682;SDS011;74905;44.124;18.116;2024-03-08T02:00:56;26.25;;;15.23;;
84682;SDS011;74905;44.124;18.116;2024-03-08T02:03:23;27.33;;;14.27;;
84682;SDS011;74905;44.124;18.116;2024-03-08T02:05:49;29.27;;;14.02;;
84682;SDS011;74905;44.124;18.116;2024-03-08T02:08:15;27.45;;;13.55;;
84682;SDS011;74905;44.124;18.116;2024-03-08T02:10:41;32.58;;;14.35;;
84682;SDS011;74905;44.124;18.116;2024-03-08T02:13:08;25.50;;;13.55;;
84682;SDS011;74905;44.124;18.116;2024-03-08T02:15:53;27.67;;;14.50;;
84682;SDS011;74905;44.124;18.116;2024-03-08T02:18:20;29.27;;;14.15;;
84682;SDS011;74905;44.124;18.116;2024-03-08T02:20:47;26.67;;;13.75;;
84682;SDS011;74905;44.124;18.116;2024-03-08T02:23:14;23.35;;;12.73;;
84682;SDS011;74905;44.124;18.116;2024-03-08T02:25:40;26.13;;;14.32;;
84682;SDS011;74905;44.124;18.116;2024-03-08T02:28:08;25.05;;;13.57;;
84682;SDS011;74905;44.124;18.116;2024-03-08T02:30:36;24.40;;;14.15;;
84682;SDS011;74905;44.124;18.116;2024-03-08T02:33:02;29.38;;;15.27;;
84682;SDS011;74905;44.124;18.116;2024-03-08T02:35:27;41.08;;;17.00;;
84682;SDS011;74905;44.124;18.116;2024-03-08T02:37:53;40.03;;;18.63;;
84682;SDS011;74905;44.124;18.116;2024-03-08T02:40:18;38.63;;;16.83;;
84682;SDS011;74905;44.124;18.116;2024-03-08T02:42:44;38.53;;;16.50;;
84682;SDS011;74905;44.124;18.116;2024-03-08T02:45:10;35.38;;;15.02;;
84682;SDS011;74905;44.124;18.116;2024-03-08T02:47:35;28.15;;;14.98;;
84682;SDS011;74905;44.124;18.116;2024-03-08T02:50:01;26.02;;;13.95;;
84682;SDS011;74905;44.124;18.116;2024-03-08T02:52:28;29.77;;;13.40;;
84682;SDS011;74905;44.124;18.116;2024-03-08T02:54:54;23.70;;;12.63;;
84682;SDS011;74905;44.124;18.116;2024-03-08T02:57:19;29.75;;;13.85;;
84682;SDS011;74905;44.124;18.116;2024-03-08T02:59:45;26.27;;;12.75;;
84682;SDS011;74905;44.124;18.116;2024-03-08T03:02:11;27.40;;;13.07;;
84682;SDS011;74905;44.124;18.116;2024-03-08T03:04:39;31.88;;;14.23;;
84682;SDS011;74905;44.124;18.116;2024-03-08T03:07:05;24.88;;;13.52;;
84682;SDS011;74905;44.124;18.116;2024-03-08T03:09:31;27.48;;;13.57;;
84682;SDS011;74905;44.124;18.116;2024-03-08T03:11:58;23.77;;;13.40;;
84682;SDS011;74905;44.124;18.116;2024-03-08T03:14:24;24.60;;;13.00;;
84682;SDS011;74905;44.124;18.116;2024-03-08T03:16:52;28.05;;;14.00;;
84682;SDS011;74905;44.124;18.116;2024-03-08T03:19:17;32.47;;;15.45;;
84682;SDS011;74905;44.124;18.116;2024-03-08T03:21:43;28.73;;;15.00;;
84682;SDS011;74905;44.124;18.116;2024-03-08T03:24:09;32.47;;;14.55;;
84682;SDS011;74905;44.124;18.116;2024-03-08T03:26:38;29.05;;;14.18;;
84682;SDS011;74905;44.124;18.116;2024-03-08T03:29:09;25.00;;;14.48;;
84682;SDS011;74905;44.124;18.116;2024-03-08T03:31:36;28.88;;;14.52;;
84682;SDS011;74905;44.124;18.116;2024-03-08T03:34:02;25.73;;;13.82;;
84682;SDS011;74905;44.124;18.116;2024-03-08T03:36:29;24.98;;;12.93;;
84682;SDS011;74905;44.124;18.116;2024-03-08T03:38:56;26.13;;;13.45;;
84682;SDS011;74905;44.124;18.116;2024-03-08T03:41:44;25.90;;;13.77;;
84682;SDS011;74905;44.124;18.116;2024-03-08T03:44:11;28.17;;;13.10;;
84682;SDS011;74905;44.124;18.116;2024-03-08T03:46:36;27.00;;;13.68;;
84682;SDS011;74905;44.124;18.116;2024-03-08T03:49:02;35.55;;;14.75;;
84682;SDS011;74905;44.124;18.116;2024-03-08T03:51:28;28.25;;;14.15;;
84682;SDS011;74905;44.124;18.116;2024-03-08T03:53:55;27.98;;;13.93;;
84682;SDS011;74905;44.124;18.116;2024-03-08T03:56:26;24.45;;;13.43;;
84682;SDS011;74905;44.124;18.116;2024-03-08T03:58:52;24.92;;;13.18;;
84682;SDS011;74905;44.124;18.116;2024-03-08T04:01:17;28.80;;;13.48;;
84682;SDS011;74905;44.124;18.116;2024-03-08T04:03:44;26.52;;;12.98;;
84682;SDS011;74905;44.124;18.116;2024-03-08T04:06:10;33.63;;;14.82;;
84682;SDS011;74905;44.124;18.116;2024-03-08T04:08:36;26.60;;;13.85;;
84682;SDS011;74905;44.124;18.116;2024-03-08T04:11:01;29.83;;;13.82;;
84682;SDS011;74905;44.124;18.116;2024-03-08T04:13:27;29.23;;;14.90;;
84682;SDS011;74905;44.124;18.116;2024-03-08T04:15:53;32.03;;;15.48;;
84682;SDS011;74905;44.124;18.116;2024-03-08T04:18:19;33.03;;;15.98;;
84682;SDS011;74905;44.124;18.116;2024-03-08T04:20:44;32.50;;;16.48;;
84682;SDS011;74905;44.124;18.116;2024-03-08T04:23:10;38.13;;;16.35;;
84682;SDS011;74905;44.124;18.116;2024-03-08T04:25:36;36.67;;;16.80;;
84682;SDS011;74905;44.124;18.116;2024-03-08T04:28:01;36.75;;;17.73;;
84682;SDS011;74905;44.124;18.116;2024-03-08T04:30:27;40.35;;;17.92;;
84682;SDS011;74905;44.124;18.116;2024-03-08T04:32:53;39.28;;;17.38;;
84682;SDS011;74905;44.124;18.116;2024-03-08T04:35:19;43.03;;;19.00;;
84682;SDS011;74905;44.124;18.116;2024-03-08T04:37:45;48.20;;;18.52;;
84682;SDS011;74905;44.124;18.116;2024-03-08T04:40:11;44.67;;;19.33;;
84682;SDS011;74905;44.124;18.116;2024-03-08T04:42:37;42.88;;;18.77;;
84682;SDS011;74905;44.124;18.116;2024-03-08T04:45:05;40.45;;;18.33;;
84682;SDS011;74905;44.124;18.116;2024-03-08T04:47:33;40.83;;;18.77;;
84682;SDS011;74905;44.124;18.116;2024-03-08T04:49:58;42.42;;;18.73;;
84682;SDS011;74905;44.124;18.116;2024-03-08T04:52:24;37.33;;;18.52;;
84682;SDS011;74905;44.124;18.116;2024-03-08T04:54:51;41.97;;;18.85;;
84682;SDS011;74905;44.124;18.116;2024-03-08T04:57:16;47.67;;;19.30;;
84682;SDS011;74905;44.124;18.116;2024-03-08T04:59:45;41.40;;;19.70;;
84682;SDS011;74905;44.124;18.116;2024-03-08T05:02:10;37.10;;;18.77;;
84682;SDS011;74905;44.124;18.116;2024-03-08T05:04:36;42.30;;;21.45;;
84682;SDS011;74905;44.124;18.116;2024-03-08T05:07:02;37.80;;;18.70;;
84682;SDS011;74905;44.124;18.116;2024-03-08T05:09:27;43.00;;;18.23;;
84682;SDS011;74905;44.124;18.116;2024-03-08T05:11:54;36.45;;;17.15;;
84682;SDS011;74905;44.124;18.116;2024-03-08T05:14:20;35.45;;;16.00;;
84682;SDS011;74905;44.124;18.116;2024-03-08T05:16:46;32.22;;;16.13;;
84682;SDS011;74905;44.124;18.116;2024-03-08T05:19:15;32.22;;;16.02;;
84682;SDS011;74905;44.124;18.116;2024-03-08T05:21:45;35.10;;;15.77;;
84682;SDS011;74905;44.124;18.116;2024-03-08T05:24:13;33.35;;;16.38;;
84682;SDS011;74905;44.124;18.116;2024-03-08T05:26:40;35.83;;;16.45;;
84682;SDS011;74905;44.124;18.116;2024-03-08T05:29:07;36.38;;;16.63;;
84682;SDS011;74905;44.124;18.116;2024-03-08T05:31:47;34.53;;;16.05;;
84682;SDS011;74905;44.124;18.116;2024-03-08T05:34:18;36.40;;;15.60;;
84682;SDS011;74905;44.124;18.116;2024-03-08T05:36:45;35.85;;;16.90;;
84682;SDS011;74905;44.124;18.116;2024-03-08T05:39:20;33.95;;;17.13;;
84682;SDS011;74905;44.124;18.116;2024-03-08T05:41:46;28.48;;;14.85;;
84682;SDS011;74905;44.124;18.116;2024-03-08T05:44:12;30.40;;;14.93;;
84682;SDS011;74905;44.124;18.116;2024-03-08T05:46:38;36.78;;;16.45;;
84682;SDS011;74905;44.124;18.116;2024-03-08T05:49:08;35.83;;;17.23;;
84682;SDS011;74905;44.124;18.116;2024-03-08T05:51:37;43.35;;;18.27;;
84682;SDS011;74905;44.124;18.116;2024-03-08T05:54:09;35.47;;;17.92;;
84682;SDS011;74905;44.124;18.116;2024-03-08T05:56:36;37.83;;;17.75;;
84682;SDS011;74905;44.124;18.116;2024-03-08T05:59:03;37.92;;;17.00;;
84682;SDS011;74905;44.124;18.116;2024-03-08T06:01:29;34.45;;;16.13;;
84682;SDS011;74905;44.124;18.116;2024-03-08T06:03:56;27.67;;;13.75;;
84682;SDS011;74905;44.124;18.116;2024-03-08T06:06:25;29.10;;;14.30;;
84682;SDS011;74905;44.124;18.116;2024-03-08T06:08:51;25.50;;;13.00;;
84682;SDS011;74905;44.124;18.116;2024-03-08T06:11:18;30.65;;;13.90;;
84682;SDS011;74905;44.124;18.116;2024-03-08T06:13:48;33.33;;;14.32;;
84682;SDS011;74905;44.124;18.116;2024-03-08T06:16:15;25.98;;;13.95;;
84682;SDS011;74905;44.124;18.116;2024-03-08T06:18:40;25.60;;;13.27;;
84682;SDS011;74905;44.124;18.116;2024-03-08T06:21:09;23.35;;;13.20;;
84682;SDS011;74905;44.124;18.116;2024-03-08T06:23:38;24.52;;;13.32;;
84682;SDS011;74905;44.124;18.116;2024-03-08T06:26:04;23.58;;;12.45;;
84682;SDS011;74905;44.124;18.116;2024-03-08T06:28:30;26.33;;;12.35;;
84682;SDS011;74905;44.124;18.116;2024-03-08T06:31:00;28.65;;;13.05;;
84682;SDS011;74905;44.124;18.116;2024-03-08T06:33:27;28.90;;;14.02;;
84682;SDS011;74905;44.124;18.116;2024-03-08T06:35:57;34.65;;;13.73;;
84682;SDS011;74905;44.124;18.116;2024-03-08T06:38:26;27.83;;;12.43;;
84682;SDS011;74905;44.124;18.116;2024-03-08T06:40:55;27.73;;;11.77;;
84682;SDS011;74905;44.124;18.116;2024-03-08T06:43:21;20.50;;;10.90;;
84682;SDS011;74905;44.124;18.116;2024-03-08T06:45:47;24.33;;;12.32;;
84682;SDS011;74905;44.124;18.116;2024-03-08T06:48:17;24.75;;;12.07;;
84682;SDS011;74905;44.124;18.116;2024-03-08T06:50:44;24.80;;;11.40;;
84682;SDS011;74905;44.124;18.116;2024-03-08T06:53:10;17.83;;;10.05;;
84682;SDS011;74905;44.124;18.116;2024-03-08T06:55:37;26.63;;;12.00;;
84682;SDS011;74905;44.124;18.116;2024-03-08T06:58:03;26.25;;;12.20;;
84682;SDS011;74905;44.124;18.116;2024-03-08T07:00:29;22.05;;;11.50;;
84682;SDS011;74905;44.124;18.116;2024-03-08T07:02:56;20.10;;;11.07;;
84682;SDS011;74905;44.124;18.116;2024-03-08T07:05:29;24.85;;;12.10;;
84682;SDS011;74905;44.124;18.116;2024-03-08T07:07:55;34.00;;;14.30;;
84682;SDS011;74905;44.124;18.116;2024-03-08T07:12:48;27.52;;;14.45;;
84682;SDS011;74905;44.124;18.116;2024-03-08T07:15:15;31.25;;;14.95;;
84682;SDS011;74905;44.124;18.116;2024-03-08T07:17:42;37.22;;;17.88;;
84682;SDS011;74905;44.124;18.116;2024-03-08T07:20:09;36.08;;;19.48;;
84682;SDS011;74905;44.124;18.116;2024-03-08T07:22:37;37.17;;;16.98;;
84682;SDS011;74905;44.124;18.116;2024-03-08T07:25:07;42.92;;;19.95;;
84682;SDS011;74905;44.124;18.116;2024-03-08T07:27:33;32.00;;;16.13;;
84682;SDS011;74905;44.124;18.116;2024-03-08T07:30:02;30.25;;;15.70;;
84682;SDS011;74905;44.124;18.116;2024-03-08T07:32:29;35.03;;;16.30;;
84682;SDS011;74905;44.124;18.116;2024-03-08T07:34:57;40.67;;;18.77;;
84682;SDS011;74905;44.124;18.116;2024-03-08T07:37:27;38.72;;;19.83;;
84682;SDS011;74905;44.124;18.116;2024-03-08T07:39:53;39.40;;;18.33;;
84682;SDS011;74905;44.124;18.116;2024-03-08T07:42:19;34.40;;;16.80;;
84682;SDS011;74905;44.124;18.116;2024-03-08T07:44:47;34.70;;;17.58;;
84682;SDS011;74905;44.124;18.116;2024-03-08T07:47:14;37.08;;;18.58;;
84682;SDS011;74905;44.124;18.116;2024-03-08T07:49:42;41.53;;;19.70;;
84682;SDS011;74905;44.124;18.116;2024-03-08T07:52:09;40.75;;;20.90;;
84682;SDS011;74905;44.124;18.116;2024-03-08T07:54:40;46.78;;;22.30;;
84682;SDS011;74905;44.124;18.116;2024-03-08T07:57:07;44.22;;;22.38;;
84682;SDS011;74905;44.124;18.116;2024-03-08T07:59:33;38.58;;;20.15;;
84682;SDS011;74905;44.124;18.116;2024-03-08T08:01:59;39.33;;;20.92;;
84682;SDS011;74905;44.124;18.116;2024-03-08T08:04:25;37.38;;;19.77;;
84682;SDS011;74905;44.124;18.116;2024-03-08T08:06:51;38.53;;;19.92;;
84682;SDS011;74905;44.124;18.116;2024-03-08T08:09:18;38.92;;;20.42;;
84682;SDS011;74905;44.124;18.116;2024-03-08T08:11:54;38.83;;;21.08;;
84682;SDS011;74905;44.124;18.116;2024-03-08T08:14:20;37.97;;;21.00;;
84682;SDS011;74905;44.124;18.116;2024-03-08T08:16:46;37.78;;;19.00;;
84682;SDS011;74905;44.124;18.116;2024-03-08T08:19:14;31.90;;;17.08;;
84682;SDS011;74905;44.124;18.116;2024-03-08T08:21:41;33.92;;;18.42;;
84682;SDS011;74905;44.124;18.116;2024-03-08T08:24:06;35.47;;;19.10;;
84682;SDS011;74905;44.124;18.116;2024-03-08T08:26:32;38.42;;;18.90;;
84682;SDS011;74905;44.124;18.116;2024-03-08T08:28:59;38.53;;;20.05;;
84682;SDS011;74905;44.124;18.116;2024-03-08T08:31:25;42.90;;;21.20;;
84682;SDS011;74905;44.124;18.116;2024-03-08T08:33:51;44.70;;;22.45;;
84682;SDS011;74905;44.124;18.116;2024-03-08T08:36:23;46.28;;;22.70;;
84682;SDS011;74905;44.124;18.116;2024-03-08T08:38:49;45.15;;;23.08;;
84682;SDS011;74905;44.124;18.116;2024-03-08T08:41:15;47.08;;;23.00;;
84682;SDS011;74905;44.124;18.116;2024-03-08T08:43:42;52.92;;;24.92;;
84682;SDS011;74905;44.124;18.116;2024-03-08T08:46:11;49.40;;;25.58;;
84682;SDS011;74905;44.124;18.116;2024-03-08T08:48:39;48.40;;;25.20;;
84682;SDS011;74905;44.124;18.116;2024-03-08T08:51:10;50.60;;;25.38;;
84682;SDS011;74905;44.124;18.116;2024-03-08T08:53:43;50.25;;;25.48;;
84682;SDS011;74905;44.124;18.116;2024-03-08T08:56:10;48.38;;;24.65;;
84682;SDS011;74905;44.124;18.116;2024-03-08T08:58:38;42.70;;;23.52;;
84682;SDS011;74905;44.124;18.116;2024-03-08T09:01:06;33.70;;;18.77;;
84682;SDS011;74905;44.124;18.116;2024-03-08T09:03:33;47.28;;;23.67;;
84682;SDS011;74905;44.124;18.116;2024-03-08T09:06:00;45.20;;;22.13;;
84682;SDS011;74905;44.124;18.116;2024-03-08T09:08:27;43.10;;;21.98;;
84682;SDS011;74905;44.124;18.116;2024-03-08T09:10:54;40.95;;;20.95;;
84682;SDS011;74905;44.124;18.116;2024-03-08T09:13:20;39.15;;;21.02;;
84682;SDS011;74905;44.124;18.116;2024-03-08T09:15:46;43.95;;;21.67;;
84682;SDS011;74905;44.124;18.116;2024-03-08T09:18:12;31.55;;;19.38;;
84682;SDS011;74905;44.124;18.116;2024-03-08T09:20:38;36.65;;;19.83;;
84682;SDS011;74905;44.124;18.116;2024-03-08T09:23:06;33.28;;;20.23;;
84682;SDS011;74905;44.124;18.116;2024-03-08T09:25:33;31.95;;;20.75;;
84682;SDS011;74905;44.124;18.116;2024-03-08T09:27:59;32.88;;;19.73;;
84682;SDS011;74905;44.124;18.116;2024-03-08T09:30:25;29.92;;;18.70;;
84682;SDS011;74905;44.124;18.116;2024-03-08T09:32:50;22.80;;;14.95;;
84682;SDS011;74905;44.124;18.116;2024-03-08T09:35:16;23.13;;;14.82;;
84682;SDS011;74905;44.124;18.116;2024-03-08T09:37:42;26.20;;;16.50;;
84682;SDS011;74905;44.124;18.116;2024-03-08T09:40:08;24.42;;;16.20;;
84682;SDS011;74905;44.124;18.116;2024-03-08T09:42:41;27.67;;;17.67;;
84682;SDS011;74905;44.124;18.116;2024-03-08T09:45:11;26.08;;;17.05;;
84682;SDS011;74905;44.124;18.116;2024-03-08T09:47:43;23.42;;;15.18;;
84682;SDS011;74905;44.124;18.116;2024-03-08T09:50:13;18.95;;;12.32;;
84682;SDS011;74905;44.124;18.116;2024-03-08T09:52:38;16.20;;;9.90;;
84682;SDS011;74905;44.124;18.116;2024-03-08T09:55:05;17.95;;;11.73;;
84682;SDS011;74905;44.124;18.116;2024-03-08T09:57:35;13.35;;;10.05;;
84682;SDS011;74905;44.124;18.116;2024-03-08T10:00:02;14.63;;;10.23;;
84682;SDS011;74905;44.124;18.116;2024-03-08T10:02:46;18.30;;;11.18;;
84682;SDS011;74905;44.124;18.116;2024-03-08T10:05:12;16.75;;;9.93;;
84682;SDS011;74905;44.124;18.116;2024-03-08T10:07:39;22.20;;;11.25;;
84682;SDS011;74905;44.124;18.116;2024-03-08T10:10:05;16.77;;;10.10;;
84682;SDS011;74905;44.124;18.116;2024-03-08T10:12:34;19.00;;;10.02;;
84682;SDS011;74905;44.124;18.116;2024-03-08T10:15:00;13.27;;;8.50;;
84682;SDS011;74905;44.124;18.116;2024-03-08T10:17:26;16.88;;;8.95;;
84682;SDS011;74905;44.124;18.116;2024-03-08T10:20:00;12.73;;;8.65;;
84682;SDS011;74905;44.124;18.116;2024-03-08T10:22:25;15.15;;;8.85;;
84682;SDS011;74905;44.124;18.116;2024-03-08T10:24:51;10.65;;;7.50;;
84682;SDS011;74905;44.124;18.116;2024-03-08T10:27:18;10.93;;;7.38;;
84682;SDS011;74905;44.124;18.116;2024-03-08T10:29:47;13.32;;;7.93;;
84682;SDS011;74905;44.124;18.116;2024-03-08T10:32:14;10.98;;;7.80;;
84682;SDS011;74905;44.124;18.116;2024-03-08T10:34:43;8.68;;;7.18;;
84682;SDS011;74905;44.124;18.116;2024-03-08T10:37:15;11.05;;;7.85;;
84682;SDS011;74905;44.124;18.116;2024-03-08T10:39:52;13.20;;;8.25;;
84682;SDS011;74905;44.124;18.116;2024-03-08T10:42:39;8.32;;;6.68;;
84682;SDS011;74905;44.124;18.116;2024-03-08T10:45:15;16.95;;;9.23;;
84682;SDS011;74905;44.124;18.116;2024-03-08T10:47:48;18.45;;;9.93;;
84682;SDS011;74905;44.124;18.116;2024-03-08T10:50:19;13.98;;;7.97;;
84682;SDS011;74905;44.124;18.116;2024-03-08T10:52:50;16.20;;;9.40;;
84682;SDS011;74905;44.124;18.116;2024-03-08T10:55:17;13.02;;;8.43;;
84682;SDS011;74905;44.124;18.116;2024-03-08T10:57:46;12.77;;;8.60;;
84682;SDS011;74905;44.124;18.116;2024-03-08T11:00:16;16.25;;;9.82;;
84682;SDS011;74905;44.124;18.116;2024-03-08T11:02:44;14.07;;;9.68;;
84682;SDS011;74905;44.124;18.116;2024-03-08T11:05:10;16.00;;;9.43;;
84682;SDS011;74905;44.124;18.116;2024-03-08T11:07:42;14.80;;;8.65;;
84682;SDS011;74905;44.124;18.116;2024-03-08T11:10:18;21.00;;;10.93;;
84682;SDS011;74905;44.124;18.116;2024-03-08T11:12:45;14.15;;;8.68;;
84682;SDS011;74905;44.124;18.116;2024-03-08T11:15:13;19.75;;;9.60;;
84682;SDS011;74905;44.124;18.116;2024-03-08T11:17:40;14.02;;;9.48;;
84682;SDS011;74905;44.124;18.116;2024-03-08T11:20:12;16.03;;;9.70;;
84682;SDS011;74905;44.124;18.116;2024-03-08T11:22:50;14.15;;;8.98;;
84682;SDS011;74905;44.124;18.116;2024-03-08T11:25:31;14.77;;;9.85;;
84682;SDS011;74905;44.124;18.116;2024-03-08T11:30:46;10.45;;;7.47;;
84682;SDS011;74905;44.124;18.116;2024-03-08T11:33:34;11.98;;;7.75;;
84682;SDS011;74905;44.124;18.116;2024-03-08T11:38:43;15.95;;;9.68;;
84682;SDS011;74905;44.124;18.116;2024-03-08T11:41:09;16.35;;;9.60;;
84682;SDS011;74905;44.124;18.116;2024-03-08T11:43:40;13.98;;;9.65;;
84682;SDS011;74905;44.124;18.116;2024-03-08T11:46:12;15.02;;;10.32;;
84682;SDS011;74905;44.124;18.116;2024-03-08T11:48:39;19.85;;;10.20;;
84682;SDS011;74905;44.124;18.116;2024-03-08T11:51:12;17.30;;;10.30;;
84682;SDS011;74905;44.124;18.116;2024-03-08T11:53:39;13.90;;;9.00;;
84682;SDS011;74905;44.124;18.116;2024-03-08T11:56:15;17.55;;;10.77;;
84682;SDS011;74905;44.124;18.116;2024-03-08T11:58:42;16.55;;;9.73;;
84682;SDS011;74905;44.124;18.116;2024-03-08T12:01:19;16.05;;;10.20;;
84682;SDS011;74905;44.124;18.116;2024-03-08T12:03:45;18.55;;;9.57;;
84682;SDS011;74905;44.124;18.116;2024-03-08T12:06:24;14.85;;;9.30;;
84682;SDS011;74905;44.124;18.116;2024-03-08T12:08:50;12.52;;;8.57;;
84682;SDS011;74905;44.124;18.116;2024-03-08T12:11:17;12.73;;;8.63;;
84682;SDS011;74905;44.124;18.116;2024-03-08T12:13:48;13.63;;;8.93;;
84682;SDS011;74905;44.124;18.116;2024-03-08T12:16:17;11.32;;;8.02;;
84682;SDS011;74905;44.124;18.116;2024-03-08T12:18:44;11.88;;;7.75;;
84682;SDS011;74905;44.124;18.116;2024-03-08T12:21:11;11.05;;;7.75;;
84682;SDS011;74905;44.124;18.116;2024-03-08T12:23:39;9.85;;;7.45;;
84682;SDS011;74905;44.124;18.116;2024-03-08T12:28:48;11.35;;;8.10;;
84682;SDS011;74905;44.124;18.116;2024-03-08T12:31:15;11.05;;;7.65;;
84682;SDS011;74905;44.124;18.116;2024-03-08T12:36:17;10.75;;;7.75;;
84682;SDS011;74905;44.124;18.116;2024-03-08T12:38:44;11.38;;;7.80;;
84682;SDS011;74905;44.124;18.116;2024-03-08T12:41:17;8.98;;;7.05;;
84682;SDS011;74905;44.124;18.116;2024-03-08T12:43:47;11.95;;;8.02;;
84682;SDS011;74905;44.124;18.116;2024-03-08T12:46:19;10.35;;;7.20;;
84682;SDS011;74905;44.124;18.116;2024-03-08T12:48:46;9.48;;;7.22;;
84682;SDS011;74905;44.124;18.116;2024-03-08T12:51:16;9.98;;;6.90;;
84682;SDS011;74905;44.124;18.116;2024-03-08T12:53:46;11.18;;;7.90;;
84682;SDS011;74905;44.124;18.116;2024-03-08T12:56:12;8.10;;;6.65;;
84682;SDS011;74905;44.124;18.116;2024-03-08T12:58:40;7.47;;;5.28;;
84682;SDS011;74905;44.124;18.116;2024-03-08T13:01:06;10.55;;;7.35;;
84682;SDS011;74905;44.124;18.116;2024-03-08T13:03:36;11.55;;;7.50;;
84682;SDS011;74905;44.124;18.116;2024-03-08T13:06:05;10.60;;;6.90;;
84682;SDS011;74905;44.124;18.116;2024-03-08T13:08:37;8.43;;;6.22;;
84682;SDS011;74905;44.124;18.116;2024-03-08T13:11:09;9.68;;;6.47;;
84682;SDS011;74905;44.124;18.116;2024-03-08T13:13:42;10.25;;;6.38;;
84682;SDS011;74905;44.124;18.116;2024-03-08T13:16:11;8.52;;;5.65;;
84682;SDS011;74905;44.124;18.116;2024-03-08T13:18:41;9.98;;;6.95;;
84682;SDS011;74905;44.124;18.116;2024-03-08T13:21:10;10.57;;;6.05;;
84682;SDS011;74905;44.124;18.116;2024-03-08T13:23:38;7.80;;;5.80;;
84682;SDS011;74905;44.124;18.116;2024-03-08T13:26:06;10.93;;;6.30;;
84682;SDS011;74905;44.124;18.116;2024-03-08T13:28:37;9.15;;;6.15;;
84682;SDS011;74905;44.124;18.116;2024-03-08T13:31:04;8.30;;;5.80;;
84682;SDS011;74905;44.124;18.116;2024-03-08T13:33:38;11.63;;;7.63;;
84682;SDS011;74905;44.124;18.116;2024-03-08T13:36:11;12.90;;;9.40;;
84682;SDS011;74905;44.124;18.116;2024-03-08T13:38:49;15.52;;;8.93;;
84682;SDS011;74905;44.124;18.116;2024-03-08T13:41:15;10.30;;;7.82;;
84682;SDS011;74905;44.124;18.116;2024-03-08T13:43:43;10.45;;;7.70;;
84682;SDS011;74905;44.124;18.116;2024-03-08T13:46:15;11.30;;;6.50;;
84682;SDS011;74905;44.124;18.116;2024-03-08T13:48:41;9.43;;;6.80;;
84682;SDS011;74905;44.124;18.116;2024-03-08T13:53:35;9.35;;;6.53;;
84682;SDS011;74905;44.124;18.116;2024-03-08T13:56:04;8.73;;;7.05;;
84682;SDS011;74905;44.124;18.116;2024-03-08T13:58:40;9.07;;;6.85;;
84682;SDS011;74905;44.124;18.116;2024-03-08T14:01:06;9.13;;;7.32;;
84682;SDS011;74905;44.124;18.116;2024-03-08T14:03:36;8.10;;;6.18;;
84682;SDS011;74905;44.124;18.116;2024-03-08T14:06:02;10.93;;;7.43;;
84682;SDS011;74905;44.124;18.116;2024-03-08T14:08:50;8.88;;;6.43;;
84682;SDS011;74905;44.124;18.116;2024-03-08T14:11:16;10.77;;;6.53;;
84682;SDS011;74905;44.124;18.116;2024-03-08T14:13:44;7.10;;;5.30;;
84682;SDS011;74905;44.124;18.116;2024-03-08T14:16:11;11.13;;;6.53;;
84682;SDS011;74905;44.124;18.116;2024-03-08T14:18:37;9.88;;;6.63;;
84682;SDS011;74905;44.124;18.116;2024-03-08T14:21:03;12.00;;;7.50;;
84682;SDS011;74905;44.124;18.116;2024-03-08T14:23:30;15.82;;;10.10;;
84682;SDS011;74905;44.124;18.116;2024-03-08T14:25:55;11.70;;;7.18;;
84682;SDS011;74905;44.124;18.116;2024-03-08T14:28:24;12.20;;;7.70;;
84682;SDS011;74905;44.124;18.116;2024-03-08T14:30:50;10.27;;;7.25;;
84682;SDS011;74905;44.124;18.116;2024-03-08T14:33:16;9.32;;;7.15;;